sensor_id;sensor_type;location;lat;lon;timestamp;P1;durP1;ratioP1;P2;durP2;ratioP2
56911;SDS011;42800;53.928;27.662;2022-09-20T00:01:23;3.45;;;2.95;;
56911;SDS011;42800;53.928;27.662;2022-09-20T00:03:52;5.25;;;3.25;;
56911;SDS011;42800;53.928;27.662;2022-09-20T00:06:21;3.83;;;2.67;;
56911;SDS011;42800;53.928;27.662;2022-09-20T00:08:48;2.78;;;2.58;;
56911;SDS011;42800;53.928;27.662;2022-09-20T00:11:16;4.93;;;2.53;;
56911;SDS011;42800;53.928;27.662;2022-09-20T00:13:43;4.78;;;2.33;;
56911;SDS011;42800;53.928;27.662;2022-09-20T00:16:12;2.78;;;2.55;;
56911;SDS011;42800;53.928;27.662;2022-09-20T00:18:40;3.55;;;2.33;;
56911;SDS011;42800;53.928;27.662;2022-09-20T00:21:06;3.95;;;2.50;;
56911;SDS011;42800;53.928;27.662;2022-09-20T00:23:40;4.28;;;2.53;;
56911;SDS011;42800;53.928;27.662;2022-09-20T00:26:06;2.58;;;2.38;;
56911;SDS011;42800;53.928;27.662;2022-09-20T00:28:32;4.43;;;2.30;;
56911;SDS011;42800;53.928;27.662;2022-09-20T00:30:59;2.80;;;2.60;;
56911;SDS011;42800;53.928;27.662;2022-09-20T00:33:26;2.60;;;2.30;;
56911;SDS011;42800;53.928;27.662;2022-09-20T00:36:12;26.25;;;3.30;;
56911;SDS011;42800;53.928;27.662;2022-09-20T00:38:38;3.92;;;2.67;;
56911;SDS011;42800;53.928;27.662;2022-09-20T00:41:05;2.72;;;2.42;;
56911;SDS011;42800;53.928;27.662;2022-09-20T00:43:35;3.03;;;2.35;;
56911;SDS011;42800;53.928;27.662;2022-09-20T00:46:03;4.40;;;2.40;;
56911;SDS011;42800;53.928;27.662;2022-09-20T00:48:31;2.65;;;2.45;;
56911;SDS011;42800;53.928;27.662;2022-09-20T00:51:00;2.58;;;2.38;;
56911;SDS011;42800;53.928;27.662;2022-09-20T00:53:33;4.53;;;2.47;;
56911;SDS011;42800;53.928;27.662;2022-09-20T00:56:04;4.30;;;2.30;;
56911;SDS011;42800;53.928;27.662;2022-09-20T00:58:35;2.78;;;2.50;;
56911;SDS011;42800;53.928;27.662;2022-09-20T01:01:05;2.50;;;2.30;;
56911;SDS011;42800;53.928;27.662;2022-09-20T01:03:33;3.03;;;1.90;;
56911;SDS011;42800;53.928;27.662;2022-09-20T01:06:03;2.75;;;2.22;;
56911;SDS011;42800;53.928;27.662;2022-09-20T01:08:34;2.72;;;2.30;;
56911;SDS011;42800;53.928;27.662;2022-09-20T01:11:01;2.72;;;2.20;;
56911;SDS011;42800;53.928;27.662;2022-09-20T01:13:28;3.25;;;2.42;;
56911;SDS011;42800;53.928;27.662;2022-09-20T01:15:54;2.25;;;2.08;;
56911;SDS011;42800;53.928;27.662;2022-09-20T01:18:23;3.97;;;2.53;;
56911;SDS011;42800;53.928;27.662;2022-09-20T01:20:50;3.42;;;2.47;;
56911;SDS011;42800;53.928;27.662;2022-09-20T01:23:23;3.72;;;2.42;;
56911;SDS011;42800;53.928;27.662;2022-09-20T01:26:00;6.13;;;2.65;;
56911;SDS011;42800;53.928;27.662;2022-09-20T01:28:37;2.80;;;2.10;;
56911;SDS011;42800;53.928;27.662;2022-09-20T01:31:07;3.50;;;2.30;;
56911;SDS011;42800;53.928;27.662;2022-09-20T01:33:37;2.95;;;2.30;;
56911;SDS011;42800;53.928;27.662;2022-09-20T01:36:10;2.63;;;2.30;;
56911;SDS011;42800;53.928;27.662;2022-09-20T01:38:42;3.22;;;2.33;;
56911;SDS011;42800;53.928;27.662;2022-09-20T01:41:17;2.55;;;2.35;;
56911;SDS011;42800;53.928;27.662;2022-09-20T01:43:50;2.92;;;2.45;;
56911;SDS011;42800;53.928;27.662;2022-09-20T01:46:22;5.72;;;3.15;;
56911;SDS011;42800;53.928;27.662;2022-09-20T01:48:55;6.85;;;3.35;;
56911;SDS011;42800;53.928;27.662;2022-09-20T01:51:53;4.28;;;2.92;;
56911;SDS011;42800;53.928;27.662;2022-09-20T01:54:52;4.38;;;3.30;;
56911;SDS011;42800;53.928;27.662;2022-09-20T01:58:04;6.40;;;3.70;;
56911;SDS011;42800;53.928;27.662;2022-09-20T02:01:12;4.32;;;3.47;;
56911;SDS011;42800;53.928;27.662;2022-09-20T02:04:09;8.60;;;4.40;;
56911;SDS011;42800;53.928;27.662;2022-09-20T02:07:06;5.35;;;3.60;;
56911;SDS011;42800;53.928;27.662;2022-09-20T02:10:01;6.80;;;3.00;;
56911;SDS011;42800;53.928;27.662;2022-09-20T02:12:52;4.00;;;3.58;;
56911;SDS011;42800;53.928;27.662;2022-09-20T02:15:27;6.07;;;3.65;;
56911;SDS011;42800;53.928;27.662;2022-09-20T02:18:08;7.43;;;3.72;;
56911;SDS011;42800;53.928;27.662;2022-09-20T02:20:53;6.63;;;4.05;;
56911;SDS011;42800;53.928;27.662;2022-09-20T02:23:32;6.45;;;3.67;;
56911;SDS011;42800;53.928;27.662;2022-09-20T02:26:10;3.90;;;3.60;;
56911;SDS011;42800;53.928;27.662;2022-09-20T02:28:59;5.60;;;4.00;;
56911;SDS011;42800;53.928;27.662;2022-09-20T02:31:59;5.03;;;3.92;;
56911;SDS011;42800;53.928;27.662;2022-09-20T02:34:48;5.47;;;3.92;;
56911;SDS011;42800;53.928;27.662;2022-09-20T02:37:31;6.60;;;4.45;;
56911;SDS011;42800;53.928;27.662;2022-09-20T02:40:15;6.47;;;4.65;;
56911;SDS011;42800;53.928;27.662;2022-09-20T02:42:54;11.85;;;5.05;;
56911;SDS011;42800;53.928;27.662;2022-09-20T02:45:27;6.18;;;5.13;;
56911;SDS011;42800;53.928;27.662;2022-09-20T02:48:00;8.52;;;5.30;;
56911;SDS011;42800;53.928;27.662;2022-09-20T02:50:32;8.00;;;4.93;;
56911;SDS011;42800;53.928;27.662;2022-09-20T02:53:07;10.55;;;5.32;;
56911;SDS011;42800;53.928;27.662;2022-09-20T02:55:53;8.27;;;5.25;;
56911;SDS011;42800;53.928;27.662;2022-09-20T02:58:30;8.07;;;5.50;;
56911;SDS011;42800;53.928;27.662;2022-09-20T03:01:06;7.93;;;5.32;;
56911;SDS011;42800;53.928;27.662;2022-09-20T03:03:44;7.25;;;5.30;;
56911;SDS011;42800;53.928;27.662;2022-09-20T03:06:19;8.18;;;5.60;;
56911;SDS011;42800;53.928;27.662;2022-09-20T03:08:53;8.02;;;5.35;;
56911;SDS011;42800;53.928;27.662;2022-09-20T03:11:28;7.90;;;5.43;;
56911;SDS011;42800;53.928;27.662;2022-09-20T03:14:07;13.25;;;5.90;;
56911;SDS011;42800;53.928;27.662;2022-09-20T03:16:43;11.13;;;5.80;;
56911;SDS011;42800;53.928;27.662;2022-09-20T03:19:28;12.95;;;6.40;;
56911;SDS011;42800;53.928;27.662;2022-09-20T03:22:08;8.98;;;6.05;;
56911;SDS011;42800;53.928;27.662;2022-09-20T03:24:45;13.05;;;6.63;;
56911;SDS011;42800;53.928;27.662;2022-09-20T03:27:24;11.32;;;6.88;;
56911;SDS011;42800;53.928;27.662;2022-09-20T03:30:00;10.70;;;6.43;;
56911;SDS011;42800;53.928;27.662;2022-09-20T03:32:43;10.75;;;7.50;;
56911;SDS011;42800;53.928;27.662;2022-09-20T03:35:22;12.50;;;7.43;;
56911;SDS011;42800;53.928;27.662;2022-09-20T03:38:04;14.23;;;7.43;;
56911;SDS011;42800;53.928;27.662;2022-09-20T03:40:56;12.02;;;7.20;;
56911;SDS011;42800;53.928;27.662;2022-09-20T03:43:44;9.27;;;6.63;;
56911;SDS011;42800;53.928;27.662;2022-09-20T03:46:22;10.32;;;7.03;;
56911;SDS011;42800;53.928;27.662;2022-09-20T03:52:14;12.80;;;7.68;;
56911;SDS011;42800;53.928;27.662;2022-09-20T03:55:07;11.10;;;7.72;;
56911;SDS011;42800;53.928;27.662;2022-09-20T03:58:05;11.23;;;8.07;;
56911;SDS011;42800;53.928;27.662;2022-09-20T04:00:48;15.23;;;8.13;;
56911;SDS011;42800;53.928;27.662;2022-09-20T04:03:32;11.55;;;7.75;;
56911;SDS011;42800;53.928;27.662;2022-09-20T04:06:16;14.80;;;8.95;;
56911;SDS011;42800;53.928;27.662;2022-09-20T04:09:04;12.90;;;9.43;;
56911;SDS011;42800;53.928;27.662;2022-09-20T04:11:46;14.25;;;8.63;;
56911;SDS011;42800;53.928;27.662;2022-09-20T04:14:25;17.13;;;9.48;;
56911;SDS011;42800;53.928;27.662;2022-09-20T04:17:04;14.23;;;8.98;;
56911;SDS011;42800;53.928;27.662;2022-09-20T04:19:43;17.67;;;11.23;;
56911;SDS011;42800;53.928;27.662;2022-09-20T04:22:15;17.00;;;9.80;;
56911;SDS011;42800;53.928;27.662;2022-09-20T04:24:47;15.10;;;10.13;;
56911;SDS011;42800;53.928;27.662;2022-09-20T04:27:19;21.00;;;10.35;;
56911;SDS011;42800;53.928;27.662;2022-09-20T04:29:51;16.52;;;10.32;;
56911;SDS011;42800;53.928;27.662;2022-09-20T04:32:23;18.08;;;10.60;;
56911;SDS011;42800;53.928;27.662;2022-09-20T04:34:56;17.33;;;10.77;;
56911;SDS011;42800;53.928;27.662;2022-09-20T04:37:46;17.83;;;11.23;;
56911;SDS011;42800;53.928;27.662;2022-09-20T04:40:19;15.25;;;10.65;;
56911;SDS011;42800;53.928;27.662;2022-09-20T04:48:46;18.55;;;11.50;;
56911;SDS011;42800;53.928;27.662;2022-09-20T04:51:49;17.17;;;10.40;;
56911;SDS011;42800;53.928;27.662;2022-09-20T04:54:55;18.05;;;12.35;;
56911;SDS011;42800;53.928;27.662;2022-09-20T04:57:59;17.58;;;11.15;;
56911;SDS011;42800;53.928;27.662;2022-09-20T05:00:52;17.55;;;11.27;;
56911;SDS011;42800;53.928;27.662;2022-09-20T05:03:48;15.90;;;9.70;;
56911;SDS011;42800;53.928;27.662;2022-09-20T05:06:38;20.85;;;11.60;;
56911;SDS011;42800;53.928;27.662;2022-09-20T05:09:26;16.65;;;10.30;;
56911;SDS011;42800;53.928;27.662;2022-09-20T05:12:18;18.48;;;10.40;;
56911;SDS011;42800;53.928;27.662;2022-09-20T05:15:10;16.17;;;9.93;;
56911;SDS011;42800;53.928;27.662;2022-09-20T05:18:01;19.05;;;11.27;;
56911;SDS011;42800;53.928;27.662;2022-09-20T05:21:09;15.13;;;9.77;;
56911;SDS011;42800;53.928;27.662;2022-09-20T05:23:50;24.20;;;11.00;;
56911;SDS011;42800;53.928;27.662;2022-09-20T05:26:32;18.55;;;10.82;;
56911;SDS011;42800;53.928;27.662;2022-09-20T05:29:10;21.63;;;12.98;;
56911;SDS011;42800;53.928;27.662;2022-09-20T05:31:45;18.23;;;12.05;;
56911;SDS011;42800;53.928;27.662;2022-09-20T05:34:18;16.17;;;10.73;;
56911;SDS011;42800;53.928;27.662;2022-09-20T05:36:52;19.58;;;11.13;;
56911;SDS011;42800;53.928;27.662;2022-09-20T05:39:33;16.15;;;10.95;;
56911;SDS011;42800;53.928;27.662;2022-09-20T05:42:15;16.35;;;10.85;;
56911;SDS011;42800;53.928;27.662;2022-09-20T05:47:35;19.75;;;11.27;;
56911;SDS011;42800;53.928;27.662;2022-09-20T05:53:23;16.52;;;10.55;;
56911;SDS011;42800;53.928;27.662;2022-09-20T05:56:04;24.27;;;11.85;;
56911;SDS011;42800;53.928;27.662;2022-09-20T05:58:46;17.90;;;11.68;;
56911;SDS011;42800;53.928;27.662;2022-09-20T06:01:22;18.15;;;10.98;;
56911;SDS011;42800;53.928;27.662;2022-09-20T06:03:52;21.30;;;11.88;;
56911;SDS011;42800;53.928;27.662;2022-09-20T06:06:26;23.58;;;12.43;;
56911;SDS011;42800;53.928;27.662;2022-09-20T06:09:05;22.23;;;12.95;;
56911;SDS011;42800;53.928;27.662;2022-09-20T06:14:50;21.75;;;13.00;;
56911;SDS011;42800;53.928;27.662;2022-09-20T06:17:26;19.77;;;12.85;;
56911;SDS011;42800;53.928;27.662;2022-09-20T06:20:03;20.53;;;13.07;;
56911;SDS011;42800;53.928;27.662;2022-09-20T06:22:41;26.60;;;14.32;;
56911;SDS011;42800;53.928;27.662;2022-09-20T06:25:11;28.23;;;14.45;;
56911;SDS011;42800;53.928;27.662;2022-09-20T06:27:44;26.60;;;13.88;;
56911;SDS011;42800;53.928;27.662;2022-09-20T06:30:16;23.80;;;13.32;;
56911;SDS011;42800;53.928;27.662;2022-09-20T06:32:54;24.42;;;14.52;;
56911;SDS011;42800;53.928;27.662;2022-09-20T06:35:22;27.48;;;14.50;;
56911;SDS011;42800;53.928;27.662;2022-09-20T06:37:53;28.48;;;15.07;;
56911;SDS011;42800;53.928;27.662;2022-09-20T06:40:46;23.70;;;13.95;;
56911;SDS011;42800;53.928;27.662;2022-09-20T06:43:38;29.83;;;14.60;;
56911;SDS011;42800;53.928;27.662;2022-09-20T06:46:06;28.48;;;14.70;;
56911;SDS011;42800;53.928;27.662;2022-09-20T06:48:32;26.95;;;15.48;;
56911;SDS011;42800;53.928;27.662;2022-09-20T06:51:04;20.10;;;14.00;;
56911;SDS011;42800;53.928;27.662;2022-09-20T06:53:32;24.77;;;13.63;;
56911;SDS011;42800;53.928;27.662;2022-09-20T06:56:01;29.02;;;13.95;;
56911;SDS011;42800;53.928;27.662;2022-09-20T06:58:28;26.25;;;13.40;;
56911;SDS011;42800;53.928;27.662;2022-09-20T07:00:54;30.95;;;16.25;;
56911;SDS011;42800;53.928;27.662;2022-09-20T07:03:20;30.50;;;16.58;;
56911;SDS011;42800;53.928;27.662;2022-09-20T07:05:47;29.40;;;14.30;;
56911;SDS011;42800;53.928;27.662;2022-09-20T07:08:14;25.17;;;15.30;;
56911;SDS011;42800;53.928;27.662;2022-09-20T07:10:41;22.83;;;14.65;;
56911;SDS011;42800;53.928;27.662;2022-09-20T07:13:09;18.27;;;10.63;;
56911;SDS011;42800;53.928;27.662;2022-09-20T07:15:39;20.90;;;13.07;;
56911;SDS011;42800;53.928;27.662;2022-09-20T07:18:05;23.52;;;13.80;;
56911;SDS011;42800;53.928;27.662;2022-09-20T07:20:32;28.08;;;13.90;;
56911;SDS011;42800;53.928;27.662;2022-09-20T07:22:59;25.58;;;12.95;;
56911;SDS011;42800;53.928;27.662;2022-09-20T07:25:25;21.08;;;13.95;;
56911;SDS011;42800;53.928;27.662;2022-09-20T07:27:52;21.00;;;13.55;;
56911;SDS011;42800;53.928;27.662;2022-09-20T07:30:18;26.65;;;12.15;;
56911;SDS011;42800;53.928;27.662;2022-09-20T07:32:45;20.50;;;11.30;;
56911;SDS011;42800;53.928;27.662;2022-09-20T07:35:12;20.10;;;11.98;;
56911;SDS011;42800;53.928;27.662;2022-09-20T07:37:38;20.77;;;11.07;;
56911;SDS011;42800;53.928;27.662;2022-09-20T07:40:06;19.73;;;11.57;;
56911;SDS011;42800;53.928;27.662;2022-09-20T07:42:34;17.02;;;10.60;;
56911;SDS011;42800;53.928;27.662;2022-09-20T07:45:01;17.27;;;9.57;;
56911;SDS011;42800;53.928;27.662;2022-09-20T07:47:27;19.83;;;11.07;;
56911;SDS011;42800;53.928;27.662;2022-09-20T07:49:59;15.43;;;10.20;;
56911;SDS011;42800;53.928;27.662;2022-09-20T07:52:28;18.70;;;10.13;;
56911;SDS011;42800;53.928;27.662;2022-09-20T07:54:55;24.00;;;9.85;;
56911;SDS011;42800;53.928;27.662;2022-09-20T07:57:21;21.73;;;10.57;;
56911;SDS011;42800;53.928;27.662;2022-09-20T07:59:47;19.20;;;10.45;;
56911;SDS011;42800;53.928;27.662;2022-09-20T08:02:14;14.90;;;9.10;;
56911;SDS011;42800;53.928;27.662;2022-09-20T08:04:41;17.80;;;10.85;;
56911;SDS011;42800;53.928;27.662;2022-09-20T08:07:07;17.40;;;9.50;;
56911;SDS011;42800;53.928;27.662;2022-09-20T08:09:34;19.50;;;11.30;;
56911;SDS011;42800;53.928;27.662;2022-09-20T08:12:00;16.45;;;10.05;;
56911;SDS011;42800;53.928;27.662;2022-09-20T08:14:26;19.30;;;10.82;;
56911;SDS011;42800;53.928;27.662;2022-09-20T08:16:53;17.17;;;10.18;;
56911;SDS011;42800;53.928;27.662;2022-09-20T08:19:24;15.52;;;9.45;;
56911;SDS011;42800;53.928;27.662;2022-09-20T08:21:51;20.90;;;10.02;;
56911;SDS011;42800;53.928;27.662;2022-09-20T08:24:18;15.57;;;9.60;;
56911;SDS011;42800;53.928;27.662;2022-09-20T08:26:44;17.88;;;9.95;;
56911;SDS011;42800;53.928;27.662;2022-09-20T08:29:12;18.55;;;11.05;;
56911;SDS011;42800;53.928;27.662;2022-09-20T08:31:39;13.48;;;9.02;;
56911;SDS011;42800;53.928;27.662;2022-09-20T08:34:06;19.23;;;9.68;;
56911;SDS011;42800;53.928;27.662;2022-09-20T08:36:37;28.30;;;12.35;;
56911;SDS011;42800;53.928;27.662;2022-09-20T08:39:05;22.38;;;13.93;;
56911;SDS011;42800;53.928;27.662;2022-09-20T08:41:32;31.20;;;14.05;;
56911;SDS011;42800;53.928;27.662;2022-09-20T08:44:03;30.67;;;16.15;;
56911;SDS011;42800;53.928;27.662;2022-09-20T08:46:36;31.75;;;15.93;;
56911;SDS011;42800;53.928;27.662;2022-09-20T08:49:04;26.48;;;15.43;;
56911;SDS011;42800;53.928;27.662;2022-09-20T08:51:33;32.78;;;17.20;;
56911;SDS011;42800;53.928;27.662;2022-09-20T08:54:05;38.60;;;21.58;;
56911;SDS011;42800;53.928;27.662;2022-09-20T08:56:34;39.33;;;20.58;;
56911;SDS011;42800;53.928;27.662;2022-09-20T08:59:01;35.60;;;17.38;;
56911;SDS011;42800;53.928;27.662;2022-09-20T09:01:28;33.72;;;14.23;;
56911;SDS011;42800;53.928;27.662;2022-09-20T09:03:57;22.65;;;13.27;;
56911;SDS011;42800;53.928;27.662;2022-09-20T09:06:36;19.85;;;11.52;;
56911;SDS011;42800;53.928;27.662;2022-09-20T09:09:03;22.48;;;11.60;;
56911;SDS011;42800;53.928;27.662;2022-09-20T09:11:30;22.25;;;11.10;;
56911;SDS011;42800;53.928;27.662;2022-09-20T09:13:58;21.30;;;10.32;;
56911;SDS011;42800;53.928;27.662;2022-09-20T09:16:29;16.63;;;9.95;;
56911;SDS011;42800;53.928;27.662;2022-09-20T09:18:57;15.52;;;8.80;;
56911;SDS011;42800;53.928;27.662;2022-09-20T09:22:02;19.40;;;10.82;;
56911;SDS011;42800;53.928;27.662;2022-09-20T09:24:30;16.73;;;8.95;;
56911;SDS011;42800;53.928;27.662;2022-09-20T09:27:04;14.77;;;9.75;;
56911;SDS011;42800;53.928;27.662;2022-09-20T09:29:32;24.08;;;14.45;;
56911;SDS011;42800;53.928;27.662;2022-09-20T09:32:14;20.95;;;13.02;;
56911;SDS011;42800;53.928;27.662;2022-09-20T09:34:45;19.38;;;9.88;;
56911;SDS011;42800;53.928;27.662;2022-09-20T09:37:20;18.45;;;10.80;;
56911;SDS011;42800;53.928;27.662;2022-09-20T09:39:53;18.95;;;10.15;;
56911;SDS011;42800;53.928;27.662;2022-09-20T09:42:31;19.23;;;8.98;;
56911;SDS011;42800;53.928;27.662;2022-09-20T09:45:08;15.88;;;8.40;;
56911;SDS011;42800;53.928;27.662;2022-09-20T09:47:36;13.40;;;7.70;;
56911;SDS011;42800;53.928;27.662;2022-09-20T09:50:03;26.27;;;8.27;;
56911;SDS011;42800;53.928;27.662;2022-09-20T09:52:30;17.23;;;8.98;;
56911;SDS011;42800;53.928;27.662;2022-09-20T09:54:59;19.73;;;8.30;;
56911;SDS011;42800;53.928;27.662;2022-09-20T09:57:31;14.57;;;7.32;;
56911;SDS011;42800;53.928;27.662;2022-09-20T10:00:08;9.73;;;5.68;;
56911;SDS011;42800;53.928;27.662;2022-09-20T10:05:52;10.60;;;6.70;;
56911;SDS011;42800;53.928;27.662;2022-09-20T10:08:33;11.40;;;6.93;;
56911;SDS011;42800;53.928;27.662;2022-09-20T10:11:08;10.68;;;7.15;;
56911;SDS011;42800;53.928;27.662;2022-09-20T10:13:45;8.57;;;6.78;;
56911;SDS011;42800;53.928;27.662;2022-09-20T10:16:24;16.38;;;7.15;;
56911;SDS011;42800;53.928;27.662;2022-09-20T10:18:59;12.80;;;11.45;;
56911;SDS011;42800;53.928;27.662;2022-09-20T10:21:34;13.30;;;7.82;;
56911;SDS011;42800;53.928;27.662;2022-09-20T10:24:14;15.98;;;7.22;;
56911;SDS011;42800;53.928;27.662;2022-09-20T10:26:59;16.60;;;8.20;;
56911;SDS011;42800;53.928;27.662;2022-09-20T10:29:39;10.77;;;7.35;;
56911;SDS011;42800;53.928;27.662;2022-09-20T10:32:40;12.98;;;7.40;;
56911;SDS011;42800;53.928;27.662;2022-09-20T10:35:21;9.77;;;5.15;;
56911;SDS011;42800;53.928;27.662;2022-09-20T10:38:11;11.10;;;5.97;;
56911;SDS011;42800;53.928;27.662;2022-09-20T10:40:57;11.35;;;5.55;;
56911;SDS011;42800;53.928;27.662;2022-09-20T10:44:26;13.13;;;6.45;;
56911;SDS011;42800;53.928;27.662;2022-09-20T10:47:03;14.70;;;6.40;;
56911;SDS011;42800;53.928;27.662;2022-09-20T10:49:40;11.25;;;7.00;;
56911;SDS011;42800;53.928;27.662;2022-09-20T10:52:15;13.50;;;5.82;;
56911;SDS011;42800;53.928;27.662;2022-09-20T10:55:03;8.68;;;7.72;;
56911;SDS011;42800;53.928;27.662;2022-09-20T10:57:49;7.38;;;5.15;;
56911;SDS011;42800;53.928;27.662;2022-09-20T11:00:39;11.77;;;6.10;;
56911;SDS011;42800;53.928;27.662;2022-09-20T11:03:17;9.50;;;5.10;;
56911;SDS011;42800;53.928;27.662;2022-09-20T11:05:56;7.60;;;4.93;;
56911;SDS011;42800;53.928;27.662;2022-09-20T11:08:33;8.73;;;5.28;;
56911;SDS011;42800;53.928;27.662;2022-09-20T11:11:04;9.82;;;6.07;;
56911;SDS011;42800;53.928;27.662;2022-09-20T11:16:11;11.30;;;5.80;;
56911;SDS011;42800;53.928;27.662;2022-09-20T11:18:50;11.98;;;5.38;;
56911;SDS011;42800;53.928;27.662;2022-09-20T11:21:24;9.30;;;5.90;;
56911;SDS011;42800;53.928;27.662;2022-09-20T11:23:58;8.50;;;7.03;;
56911;SDS011;42800;53.928;27.662;2022-09-20T11:26:30;8.32;;;4.65;;
56911;SDS011;42800;53.928;27.662;2022-09-20T11:29:06;7.60;;;4.78;;
56911;SDS011;42800;53.928;27.662;2022-09-20T11:31:38;6.30;;;4.78;;
56911;SDS011;42800;53.928;27.662;2022-09-20T11:34:09;10.80;;;4.28;;
56911;SDS011;42800;53.928;27.662;2022-09-20T11:36:43;10.45;;;4.72;;
56911;SDS011;42800;53.928;27.662;2022-09-20T11:39:18;10.10;;;4.38;;
56911;SDS011;42800;53.928;27.662;2022-09-20T11:41:50;4.47;;;3.90;;
56911;SDS011;42800;53.928;27.662;2022-09-20T11:44:20;3.35;;;2.95;;
56911;SDS011;42800;53.928;27.662;2022-09-20T11:46:48;5.07;;;2.80;;
56911;SDS011;42800;53.928;27.662;2022-09-20T11:49:20;4.75;;;3.40;;
56911;SDS011;42800;53.928;27.662;2022-09-20T11:51:59;4.30;;;3.20;;
56911;SDS011;42800;53.928;27.662;2022-09-20T11:54:58;3.38;;;2.78;;
56911;SDS011;42800;53.928;27.662;2022-09-20T11:57:36;3.83;;;2.78;;
56911;SDS011;42800;53.928;27.662;2022-09-20T12:00:04;2.95;;;2.60;;
56911;SDS011;42800;53.928;27.662;2022-09-20T12:02:33;5.07;;;2.85;;
56911;SDS011;42800;53.928;27.662;2022-09-20T12:05:02;5.30;;;3.22;;
56911;SDS011;42800;53.928;27.662;2022-09-20T12:07:31;4.65;;;3.08;;
56911;SDS011;42800;53.928;27.662;2022-09-20T12:10:01;3.58;;;2.88;;
56911;SDS011;42800;53.928;27.662;2022-09-20T12:12:35;7.25;;;3.20;;
56911;SDS011;42800;53.928;27.662;2022-09-20T12:15:06;4.67;;;3.20;;
56911;SDS011;42800;53.928;27.662;2022-09-20T12:18:02;3.80;;;3.05;;
56911;SDS011;42800;53.928;27.662;2022-09-20T12:26:35;3.88;;;3.28;;
56911;SDS011;42800;53.928;27.662;2022-09-20T12:32:32;3.75;;;2.83;;
56911;SDS011;42800;53.928;27.662;2022-09-20T12:38:30;4.15;;;3.25;;
56911;SDS011;42800;53.928;27.662;2022-09-20T12:41:00;3.97;;;2.78;;
56911;SDS011;42800;53.928;27.662;2022-09-20T12:43:36;4.25;;;3.10;;
56911;SDS011;42800;53.928;27.662;2022-09-20T12:46:16;2.92;;;2.55;;
56911;SDS011;42800;53.928;27.662;2022-09-20T12:48:47;4.38;;;3.10;;
56911;SDS011;42800;53.928;27.662;2022-09-20T12:51:18;2.63;;;2.42;;
56911;SDS011;42800;53.928;27.662;2022-09-20T12:54:08;4.10;;;2.70;;
56911;SDS011;42800;53.928;27.662;2022-09-20T12:56:37;5.13;;;2.42;;
56911;SDS011;42800;53.928;27.662;2022-09-20T12:59:06;3.97;;;2.55;;
56911;SDS011;42800;53.928;27.662;2022-09-20T13:01:46;3.15;;;2.88;;
56911;SDS011;42800;53.928;27.662;2022-09-20T13:07:29;2.22;;;1.65;;
56911;SDS011;42800;53.928;27.662;2022-09-20T13:10:00;2.47;;;1.85;;
56911;SDS011;42800;53.928;27.662;2022-09-20T13:12:30;3.85;;;1.52;;
56911;SDS011;42800;53.928;27.662;2022-09-20T13:15:01;2.13;;;1.60;;
56911;SDS011;42800;53.928;27.662;2022-09-20T13:17:30;2.17;;;1.90;;
56911;SDS011;42800;53.928;27.662;2022-09-20T13:19:57;1.65;;;1.55;;
56911;SDS011;42800;53.928;27.662;2022-09-20T13:22:24;2.95;;;2.00;;
56911;SDS011;42800;53.928;27.662;2022-09-20T13:24:55;4.32;;;2.10;;
56911;SDS011;42800;53.928;27.662;2022-09-20T13:27:24;3.58;;;2.95;;
56911;SDS011;42800;53.928;27.662;2022-09-20T13:29:55;2.20;;;1.88;;
56911;SDS011;42800;53.928;27.662;2022-09-20T13:32:34;4.47;;;1.92;;
56911;SDS011;42800;53.928;27.662;2022-09-20T13:35:05;2.60;;;2.00;;
56911;SDS011;42800;53.928;27.662;2022-09-20T13:37:32;2.10;;;1.88;;
56911;SDS011;42800;53.928;27.662;2022-09-20T13:40:01;2.05;;;1.80;;
56911;SDS011;42800;53.928;27.662;2022-09-20T13:42:28;6.40;;;1.92;;
56911;SDS011;42800;53.928;27.662;2022-09-20T13:44:57;1.83;;;1.65;;
56911;SDS011;42800;53.928;27.662;2022-09-20T13:47:24;2.40;;;1.80;;
56911;SDS011;42800;53.928;27.662;2022-09-20T13:49:58;2.13;;;1.92;;
56911;SDS011;42800;53.928;27.662;2022-09-20T13:52:27;2.58;;;1.88;;
56911;SDS011;42800;53.928;27.662;2022-09-20T13:54:54;3.95;;;2.10;;
56911;SDS011;42800;53.928;27.662;2022-09-20T13:57:22;2.78;;;2.17;;
56911;SDS011;42800;53.928;27.662;2022-09-20T13:59:52;2.40;;;2.20;;
56911;SDS011;42800;53.928;27.662;2022-09-20T14:02:20;3.08;;;2.05;;
56911;SDS011;42800;53.928;27.662;2022-09-20T14:04:50;3.30;;;2.28;;
56911;SDS011;42800;53.928;27.662;2022-09-20T14:07:20;2.83;;;2.10;;
56911;SDS011;42800;53.928;27.662;2022-09-20T14:09:50;3.15;;;2.10;;
56911;SDS011;42800;53.928;27.662;2022-09-20T14:12:26;5.63;;;2.60;;
56911;SDS011;42800;53.928;27.662;2022-09-20T14:14:56;4.18;;;2.42;;
56911;SDS011;42800;53.928;27.662;2022-09-20T14:17:23;2.08;;;1.88;;
56911;SDS011;42800;53.928;27.662;2022-09-20T14:19:51;3.42;;;2.50;;
56911;SDS011;42800;53.928;27.662;2022-09-20T14:22:19;2.55;;;1.98;;
56911;SDS011;42800;53.928;27.662;2022-09-20T14:24:55;3.13;;;2.60;;
56911;SDS011;42800;53.928;27.662;2022-09-20T14:27:26;3.40;;;2.30;;
56911;SDS011;42800;53.928;27.662;2022-09-20T14:29:55;5.25;;;2.58;;
56911;SDS011;42800;53.928;27.662;2022-09-20T14:35:14;3.28;;;2.30;;
56911;SDS011;42800;53.928;27.662;2022-09-20T14:37:44;4.50;;;2.67;;
56911;SDS011;42800;53.928;27.662;2022-09-20T14:40:17;3.03;;;2.63;;
56911;SDS011;42800;53.928;27.662;2022-09-20T14:42:47;3.95;;;2.10;;
56911;SDS011;42800;53.928;27.662;2022-09-20T14:45:20;2.42;;;2.10;;
56911;SDS011;42800;53.928;27.662;2022-09-20T14:47:51;4.72;;;2.10;;
56911;SDS011;42800;53.928;27.662;2022-09-20T14:50:21;2.42;;;2.20;;
56911;SDS011;42800;53.928;27.662;2022-09-20T14:53:00;5.18;;;2.25;;
56911;SDS011;42800;53.928;27.662;2022-09-20T14:55:55;4.97;;;2.40;;
56911;SDS011;42800;53.928;27.662;2022-09-20T14:58:23;3.33;;;2.22;;
56911;SDS011;42800;53.928;27.662;2022-09-20T15:00:51;5.88;;;2.50;;
56911;SDS011;42800;53.928;27.662;2022-09-20T15:03:23;3.15;;;2.20;;
56911;SDS011;42800;53.928;27.662;2022-09-20T15:05:51;3.83;;;2.72;;
56911;SDS011;42800;53.928;27.662;2022-09-20T15:08:18;4.30;;;2.45;;
56911;SDS011;42800;53.928;27.662;2022-09-20T15:10:44;4.63;;;2.58;;
56911;SDS011;42800;53.928;27.662;2022-09-20T15:13:11;4.03;;;2.63;;
56911;SDS011;42800;53.928;27.662;2022-09-20T15:15:38;5.05;;;2.55;;
56911;SDS011;42800;53.928;27.662;2022-09-20T15:18:08;3.70;;;2.30;;
56911;SDS011;42800;53.928;27.662;2022-09-20T15:20:42;3.83;;;3.03;;
56911;SDS011;42800;53.928;27.662;2022-09-20T15:23:08;9.50;;;2.92;;
56911;SDS011;42800;53.928;27.662;2022-09-20T15:25:35;6.38;;;3.72;;
56911;SDS011;42800;53.928;27.662;2022-09-20T15:28:01;5.07;;;3.53;;
56911;SDS011;42800;53.928;27.662;2022-09-20T15:30:28;3.70;;;3.17;;
56911;SDS011;42800;53.928;27.662;2022-09-20T15:32:55;4.40;;;3.50;;
56911;SDS011;42800;53.928;27.662;2022-09-20T15:35:22;4.32;;;3.03;;
56911;SDS011;42800;53.928;27.662;2022-09-20T15:37:48;6.43;;;3.80;;
56911;SDS011;42800;53.928;27.662;2022-09-20T15:40:14;4.10;;;3.13;;
56911;SDS011;42800;53.928;27.662;2022-09-20T15:42:41;5.50;;;3.42;;
56911;SDS011;42800;53.928;27.662;2022-09-20T15:45:10;5.65;;;4.00;;
56911;SDS011;42800;53.928;27.662;2022-09-20T15:47:37;4.40;;;3.53;;
56911;SDS011;42800;53.928;27.662;2022-09-20T15:50:05;6.00;;;3.47;;